Time;durP1;ratioP1;P1;durP2;ratioP2;P2;SDS_P1;SDS_P2;PMS_P1;PMS_P2;Temp;Humidity;BMP_temperature;BMP_pressure;BME280_temperature;BME280_humidity;BME280_pressure;Samples;Min_cycle;Max_cycle;Signal;HPM_P1;HPM_P2
2023/11/17 00:01:17;;;;;;;;;;;;;;;;;;5042307;28;20024;-61
2023/11/17 00:03:43;;;;;;;;;;;;;;;;;;5058910;28;19920;-61
2023/11/17 00:06:09;;;;;;;;;;;;;;;;;;5040290;28;19921;-61
2023/11/17 00:08:35;;;;;;;;;;;;;;;;;;5069580;28;20023;-61
2023/11/17 00:11:01;;;;;;;;;;;;;;;;;;5043734;28;19960;-61
2023/11/17 00:13:27;;;;;;;;;;;;;;;;;;5060568;28;20566;-61
2023/11/17 00:15:52;;;;;;;;;;;;;;;;;;5068277;28;19948;-61
2023/11/17 00:18:18;;;;;;;;;;;;;;;;;;5062405;28;20027;-61
2023/11/17 00:20:44;;;;;;;;;;;;;;;;;;5061881;28;20063;-61
2023/11/17 00:23:11;;;;;;;;;;;;;;;;;;5067579;28;19966;-61
2023/11/17 00:25:37;;;;;;;;;;;;;;;;;;5069584;28;19921;-61
2023/11/17 00:28:03;;;;;;;;;;;;;;;;;;5069767;28;19963;-61
2023/11/17 00:30:29;;;;;;;;;;;;;;;;;;5068482;28;19952;-61
2023/11/17 00:32:55;;;;;;;;;;;;;;;;;;5071425;28;20381;-60
2023/11/17 00:35:21;;;;;;;;;;;;;;;;;;5071200;28;20011;-60
2023/11/17 00:37:47;;;;;;;;;;;;;;;;;;5032142;28;19942;-60
2023/11/17 00:40:13;;;;;;;;;;;;;;;;;;5070901;28;19931;-60
2023/11/17 00:42:39;;;;;;;;;;;;;;;;;;5071261;28;19924;-60
2023/11/17 00:45:07;;;;;;;;;;;;;;;;;;5053802;28;19931;-60
2023/11/17 00:47:33;;;;;;;;;;;;;;;;;;5066427;28;19928;-60
2023/11/17 00:49:59;;;;;;;;;;;;;;;;;;5064147;28;20023;-60
2023/11/17 00:52:25;;;;;;;;;;;;;;;;;;5064930;28;19952;-60
2023/11/17 00:54:53;;;;;;;;;;;;;;;;;;5067926;28;20587;-60
2023/11/17 00:57:19;;;;;;;;;;;;;;;;;;5068186;28;19928;-60
2023/11/17 00:59:45;;;;;;;;;;;;;;;;;;5069089;28;19924;-61
2023/11/17 01:02:11;;;;;;;;;;;;;;;;;;5070353;28;19971;-60
2023/11/17 01:04:37;;;;;;;;;;;;;;;;;;5054266;28;19921;-60
2023/11/17 01:07:03;;;;;;;;;;;;;;;;;;5069851;28;20031;-61
2023/11/17 01:09:29;;;;;;;;;;;;;;;;;;5072516;28;19921;-61
2023/11/17 01:11:55;;;;;;;;;;;;;;;;;;5070916;28;19921;-61
2023/11/17 01:14:21;;;;;;;;;;;;;;;;;;5072331;28;19920;-61
2023/11/17 01:16:47;;;;;;;;;;;;;;;;;;5068132;28;20279;-61
2023/11/17 01:19:13;;;;;;;;;;;;;;;;;;5070260;28;19920;-61
2023/11/17 01:21:39;;;;;;;;;;;;;;;;;;5069511;28;19921;-61
2023/11/17 01:24:05;;;;;;;;;;;;;;;;;;5068440;28;20358;-61
2023/11/17 01:26:31;;;;;;;;;;;;;;;;;;5069244;28;21068;-61
2023/11/17 01:28:57;;;;;;;;;;;;;;;;;;5070489;28;19924;-61
2023/11/17 01:31:22;;;;;;;;;;;;;;;;;;5067176;28;20015;-61
2023/11/17 01:33:48;;;;;;;;;;;;;;;;;;5071158;28;19963;-61
2023/11/17 01:36:14;;;;;;;;;;;;;;;;;;5069288;28;19970;-61
2023/11/17 01:38:40;;;;;;;;;;;;;;;;;;5072222;28;19921;-61
2023/11/17 01:41:06;;;;;;;;;;;;;;;;;;5070739;28;20370;-61
2023/11/17 01:43:32;;;;;;;;;;;;;;;;;;5073918;28;20400;-61
2023/11/17 01:45:58;;;;;;;;;;;;;;;;;;5052273;28;19927;-61
2023/11/17 01:48:24;;;;;;;;;;;;;;;;;;5066061;28;19924;-61
2023/11/17 01:50:50;;;;;;;;;;;;;;;;;;5073868;28;20010;-61
2023/11/17 01:53:17;;;;;;;;;;;;;;;;;;5073623;28;20316;-61
2023/11/17 01:55:43;;;;;;;;;;;;;;;;;;5070210;28;20427;-61
2023/11/17 01:58:09;;;;;;;;;;;;;;;;;;5068414;28;19920;-61
2023/11/17 02:00:35;;;;;;;;;;;;;;;;;;5072970;28;19932;-61
2023/11/17 02:03:01;;;;;;;;;;;;;;;;;;5057595;28;20438;-60
2023/11/17 02:05:27;;;;;;;;;;;;;;;;;;5066936;28;19931;-60
2023/11/17 02:07:53;;;;;;;;;;;;;;;;;;5070578;28;19931;-60
2023/11/17 02:10:20;;;;;;;;;;;;;;;;;;5071758;28;19924;-60
2023/11/17 02:12:52;;;;;;;;;;;;;;;;;;5065987;28;19924;-60
2023/11/17 02:15:21;;;;;;;;;;;;;;;;;;5054401;28;20305;-60
2023/11/17 02:17:49;;;;;;;;;;;;;;;;;;5059156;28;19929;-60
2023/11/17 02:20:19;;;;;;;;;;;;;;;;;;5071194;28;20439;-60
2023/11/17 02:22:45;;;;;;;;;;;;;;;;;;5070857;28;20437;-61
2023/11/17 02:25:11;;;;;;;;;;;;;;;;;;5048605;28;19959;-60
2023/11/17 02:27:37;;;;;;;;;;;;;;;;;;5071899;28;19968;-60
2023/11/17 02:30:04;;;;;;;;;;;;;;;;;;5071796;28;19958;-60
2023/11/17 02:32:30;;;;;;;;;;;;;;;;;;5068060;28;19921;-60
2023/11/17 02:34:56;;;;;;;;;;;;;;;;;;5068768;28;20380;-60
2023/11/17 02:37:21;;;;;;;;;;;;;;;;;;5053157;28;19924;-60
2023/11/17 02:39:47;;;;;;;;;;;;;;;;;;5071128;28;20394;-61
2023/11/17 02:42:13;;;;;;;;;;;;;;;;;;5070568;28;19973;-61
2023/11/17 02:44:40;;;;;;;;;;;;;;;;;;5067856;28;19920;-61
2023/11/17 02:47:08;;;;;;;;;;;;;;;;;;5071080;28;19928;-61
2023/11/17 02:49:34;;;;;;;;;;;;;;;;;;5063070;28;19931;-61
2023/11/17 02:52:03;;;;;;;;;;;;;;;;;;5071408;28;20310;-61
2023/11/17 02:54:29;;;;;;;;;;;;;;;;;;5071594;28;19935;-61
2023/11/17 02:56:55;;;;;;;;;;;;;;;;;;5068305;28;19946;-61
2023/11/17 02:59:21;;;;;;;;;;;;;;;;;;5051939;28;19928;-61
2023/11/17 03:01:47;;;;;;;;;;;;;;;;;;5071058;28;19961;-61
2023/11/17 03:04:16;;;;;;;;;;;;;;;;;;5067168;28;19920;-61
2023/11/17 03:06:45;;;;;;;;;;;;;;;;;;5072275;28;19978;-61
2023/11/17 03:09:13;;;;;;;;;;;;;;;;;;5061284;28;19920;-64
2023/11/17 03:11:41;;;;;;;;;;;;;;;;;;5036884;28;20367;-61
2023/11/17 03:14:08;;;;;;;;;;;;;;;;;;5051852;28;20332;-61
2023/11/17 03:16:34;;;;;;;;;;;;;;;;;;5053456;28;19964;-61
2023/11/17 03:19:00;;;;;;;;;;;;;;;;;;5070757;28;20404;-61
2023/11/17 03:21:26;;;;;;;;;;;;;;;;;;5070651;28;19921;-61
2023/11/17 03:23:52;;;;;;;;;;;;;;;;;;5066782;28;19974;-61
2023/11/17 03:26:18;;;;;;;;;;;;;;;;;;5067912;28;19959;-61
2023/11/17 03:28:44;;;;;;;;;;;;;;;;;;5070793;28;19928;-61
2023/11/17 03:31:13;;;;;;;;;;;;;;;;;;5071098;28;19925;-61
2023/11/17 03:33:43;;;;;;;;;;;;;;;;;;5071215;28;19931;-63
2023/11/17 03:36:08;;;;;;;;;;;;;;;;;;5052427;28;19947;-61
2023/11/17 03:38:35;;;;;;;;;;;;;;;;;;5052981;28;20417;-61
2023/11/17 03:41:00;;;;;;;;;;;;;;;;;;5052244;28;19932;-65
2023/11/17 03:43:26;;;;;;;;;;;;;;;;;;5067395;28;19924;-61
2023/11/17 03:45:52;;;;;;;;;;;;;;;;;;5071646;28;20370;-59
2023/11/17 03:48:18;;;;;;;;;;;;;;;;;;5071706;28;19931;-60
2023/11/17 03:50:44;;;;;;;;;;;;;;;;;;5071684;28;19927;-60
2023/11/17 03:53:10;;;;;;;;;;;;;;;;;;5071539;28;19946;-60
2023/11/17 03:55:36;;;;;;;;;;;;;;;;;;5070800;28;19924;-60
2023/11/17 03:58:02;;;;;;;;;;;;;;;;;;5044866;28;19928;-60
2023/11/17 04:00:28;;;;;;;;;;;;;;;;;;5068791;28;19928;-60
2023/11/17 04:02:54;;;;;;;;;;;;;;;;;;5071377;28;19925;-60
2023/11/17 04:05:20;;;;;;;;;;;;;;;;;;5071688;28;19929;-60
2023/11/17 04:07:48;;;;;;;;;;;;;;;;;;5053084;28;19925;-60
2023/11/17 04:10:14;;;;;;;;;;;;;;;;;;5071376;28;19928;-60
2023/11/17 04:12:40;;;;;;;;;;;;;;;;;;5049070;28;19921;-60
2023/11/17 04:15:06;;;;;;;;;;;;;;;;;;5071402;28;19974;-61
2023/11/17 04:17:33;;;;;;;;;;;;;;;;;;5036450;28;19928;-60
2023/11/17 04:19:59;;;;;;;;;;;;;;;;;;5071126;28;19944;-61
2023/11/17 04:22:25;;;;;;;;;;;;;;;;;;5071312;28;20285;-61
2023/11/17 04:24:51;;;;;;;;;;;;;;;;;;5070827;28;19974;-61
2023/11/17 04:27:19;;;;;;;;;;;;;;;;;;5071315;28;20358;-61
2023/11/17 04:29:45;;;;;;;;;;;;;;;;;;5062392;28;19966;-61
2023/11/17 04:32:11;;;;;;;;;;;;;;;;;;5067949;28;19925;-60
2023/11/17 04:34:37;;;;;;;;;;;;;;;;;;5056756;28;19994;-60
2023/11/17 04:37:05;;;;;;;;;;;;;;;;;;5073911;28;19927;-60
2023/11/17 04:39:31;;;;;;;;;;;;;;;;;;5056716;28;19920;-60
2023/11/17 04:41:58;;;;;;;;;;;;;;;;;;5073412;28;19927;-60
2023/11/17 04:44:24;;;;;;;;;;;;;;;;;;5074639;28;19921;-61
2023/11/17 04:46:50;;;;;;;;;;;;;;;;;;5068137;28;20488;-61
2023/11/17 04:49:16;;;;;;;;;;;;;;;;;;5067111;28;19956;-61
2023/11/17 04:51:42;;;;;;;;;;;;;;;;;;5073783;28;19966;-61
2023/11/17 04:54:08;;;;;;;;;;;;;;;;;;5056061;28;20404;-61
2023/11/17 04:56:33;;;;;;;;;;;;;;;;;;5069208;28;20007;-61
2023/11/17 04:58:59;;;;;;;;;;;;;;;;;;5071441;28;19974;-60
2023/11/17 05:01:26;;;;;;;;;;;;;;;;;;5067752;28;19925;-60
2023/11/17 05:03:52;;;;;;;;;;;;;;;;;;5072689;28;19925;-61
2023/11/17 05:06:22;;;;;;;;;;;;;;;;;;5055525;28;20572;-60
2023/11/17 05:08:48;;;;;;;;;;;;;;;;;;5070548;28;19924;-61
2023/11/17 05:11:16;;;;;;;;;;;;;;;;;;5073515;28;19924;-60
2023/11/17 05:13:43;;;;;;;;;;;;;;;;;;5073281;28;19929;-60
2023/11/17 05:16:09;;;;;;;;;;;;;;;;;;5071419;28;20397;-60
2023/11/17 05:18:35;;;;;;;;;;;;;;;;;;5070147;28;20003;-60
2023/11/17 05:21:01;;;;;;;;;;;;;;;;;;5064663;28;20011;-60
2023/11/17 05:23:27;;;;;;;;;;;;;;;;;;5056209;28;20430;-60
2023/11/17 05:25:53;;;;;;;;;;;;;;;;;;5073610;28;20003;-60
2023/11/17 05:28:19;;;;;;;;;;;;;;;;;;5074265;28;19971;-61
2023/11/17 05:30:45;;;;;;;;;;;;;;;;;;5074236;28;19947;-61
2023/11/17 05:33:12;;;;;;;;;;;;;;;;;;5074256;28;20327;-61
2023/11/17 05:35:40;;;;;;;;;;;;;;;;;;5068182;28;19973;-60
2023/11/17 05:38:06;;;;;;;;;;;;;;;;;;5066970;28;19934;-60
2023/11/17 05:40:35;;;;;;;;;;;;;;;;;;5055881;28;19956;-60
2023/11/17 05:43:01;;;;;;;;;;;;;;;;;;5073375;28;19928;-59
2023/11/17 05:45:27;;;;;;;;;;;;;;;;;;5073388;28;20030;-60
2023/11/17 05:47:53;;;;;;;;;;;;;;;;;;5073730;28;20403;-60
2023/11/17 05:50:20;;;;;;;;;;;;;;;;;;5072770;28;20466;-60
2023/11/17 05:52:46;;;;;;;;;;;;;;;;;;5062887;28;20293;-60
2023/11/17 05:55:16;;;;;;;;;;;;;;;;;;5067287;28;20389;-61
2023/11/17 05:57:42;;;;;;;;;;;;;;;;;;5044907;28;19925;-60
2023/11/17 06:00:09;;;;;;;;;;;;;;;;;;5054598;28;20015;-60
2023/11/17 06:02:34;;;;;;;;;;;;;;;;;;5070715;28;19974;-60
2023/11/17 06:05:00;;;;;;;;;;;;;;;;;;5073662;28;19925;-60
2023/11/17 06:07:26;;;;;;;;;;;;;;;;;;5070715;28;19950;-60
2023/11/17 06:09:54;;;;;;;;;;;;;;;;;;5069364;28;19921;-60
2023/11/17 06:12:19;;;;;;;;;;;;;;;;;;5067026;28;19924;-61
2023/11/17 06:14:45;;;;;;;;;;;;;;;;;;5073589;28;19999;-61
2023/11/17 06:17:11;;;;;;;;;;;;;;;;;;5073212;28;19924;-61
2023/11/17 06:19:37;;;;;;;;;;;;;;;;;;5073439;28;19970;-61
2023/11/17 06:22:06;;;;;;;;;;;;;;;;;;5038341;28;19925;-60
2023/11/17 06:24:32;;;;;;;;;;;;;;;;;;5062198;28;19933;-60
2023/11/17 06:26:59;;;;;;;;;;;;;;;;;;5054634;28;19920;-60
2023/11/17 06:29:25;;;;;;;;;;;;;;;;;;5073232;28;19947;-61
2023/11/17 06:31:51;;;;;;;;;;;;;;;;;;5071668;28;20381;-61
2023/11/17 06:34:18;;;;;;;;;;;;;;;;;;5069445;28;19921;-61
2023/11/17 06:36:44;;;;;;;;;;;;;;;;;;5071543;28;19978;-61
2023/11/17 06:39:18;;;;;;;;;;;;;;;;;;5056205;28;19952;-61
2023/11/17 06:41:44;;;;;;;;;;;;;;;;;;5066660;28;19963;-60
2023/11/17 06:44:09;;;;;;;;;;;;;;;;;;5066564;28;19959;-60
2023/11/17 06:46:36;;;;;;;;;;;;;;;;;;5058671;28;20854;-60
2023/11/17 06:49:04;;;;;;;;;;;;;;;;;;5050042;28;20065;-61
2023/11/17 06:51:31;;;;;;;;;;;;;;;;;;5063332;28;19974;-60
2023/11/17 06:53:57;;;;;;;;;;;;;;;;;;5065503;28;19971;-60
2023/11/17 06:56:23;;;;;;;;;;;;;;;;;;5069375;28;19963;-60
2023/11/17 06:58:49;;;;;;;;;;;;;;;;;;5046897;28;19942;-60
2023/11/17 07:01:15;;;;;;;;;;;;;;;;;;5042879;28;20003;-61
2023/11/17 07:03:42;;;;;;;;;;;;;;;;;;5048660;28;19943;-61
2023/11/17 07:06:11;;;;;;;;;;;;;;;;;;5067369;28;19921;-61
2023/11/17 07:08:37;;;;;;;;;;;;;;;;;;5051752;28;19924;-61
2023/11/17 07:11:03;;;;;;;;;;;;;;;;;;5064240;28;19923;-60
2023/11/17 07:13:29;;;;;;;;;;;;;;;;;;5063284;28;20377;-61
2023/11/17 07:15:55;;;;;;;;;;;;;;;;;;5051973;28;19920;-61
2023/11/17 07:18:21;;;;;;;;;;;;;;;;;;5049989;28;19932;-61
2023/11/17 07:20:47;;;;;;;;;;;;;;;;;;5058559;28;19929;-61
2023/11/17 07:23:13;;;;;;;;;;;;;;;;;;5042754;28;19944;-61
2023/11/17 07:25:45;;;;;;;;;;;;;;;;;;5064369;28;19942;-61
2023/11/17 07:28:12;;;;;;;;;;;;;;;;;;5056211;28;20500;-61
2023/11/17 07:30:38;;;;;;;;;;;;;;;;;;5064211;28;19921;-61
2023/11/17 07:33:06;;;;;;;;;;;;;;;;;;5070440;28;19924;-61
2023/11/17 07:35:32;;;;;;;;;;;;;;;;;;5071490;28;19932;-61
2023/11/17 07:37:58;;;;;;;;;;;;;;;;;;5059485;28;19983;-61
2023/11/17 07:40:24;;;;;;;;;;;;;;;;;;5041532;28;19924;-61
2023/11/17 07:42:50;;;;;;;;;;;;;;;;;;5041650;28;19927;-61
2023/11/17 07:45:17;;;;;;;;;;;;;;;;;;5057989;28;19977;-61
2023/11/17 07:47:43;;;;;;;;;;;;;;;;;;5070591;28;19924;-60
2023/11/17 07:50:13;;;;;;;;;;;;;;;;;;5045418;28;19929;-61
2023/11/17 07:52:42;;;;;;;;;;;;;;;;;;5065775;28;20622;-61
2023/11/17 07:55:08;;;;;;;;;;;;;;;;;;5042057;28;20354;-61
2023/11/17 07:57:35;;;;;;;;;;;;;;;;;;5060643;28;19930;-61
2023/11/17 08:00:04;;;;;;;;;;;;;;;;;;5068243;28;19931;-61
2023/11/17 08:02:30;;;;;;;;;;;;;;;;;;5085328;28;19958;-61
2023/11/17 08:04:56;;;;;;;;;;;;;;;;;;5070600;28;20370;-61
2023/11/17 08:07:22;;;;;;;;;;;;;;;;;;5051636;28;19934;-61
2023/11/17 08:09:48;;;;;;;;;;;;;;;;;;5065366;28;19928;-61
2023/11/17 08:12:14;;;;;;;;;;;;;;;;;;5048549;28;20344;-61
2023/11/17 08:14:40;;;;;;;;;;;;;;;;;;5045722;28;19966;-61
2023/11/17 08:17:07;;;;;;;;;;;;;;;;;;5071884;28;19998;-61
2023/11/17 08:19:34;;;;;;;;;;;;;;;;;;5049867;28;19921;-61
2023/11/17 08:22:00;;;;;;;;;;;;;;;;;;5073191;28;20036;-61
2023/11/17 08:24:26;;;;;;;;;;;;;;;;;;5060358;28;19975;-61
2023/11/17 08:26:52;;;;;;;;;;;;;;;;;;5065053;28;19955;-61
2023/11/17 08:29:19;;;;;;;;;;;;;;;;;;5055077;28;19924;-61
2023/11/17 08:31:44;;;;;;;;;;;;;;;;;;5059872;28;19925;-61
2023/11/17 08:34:10;;;;;;;;;;;;;;;;;;5067560;28;19921;-61
2023/11/17 08:36:36;;;;;;;;;;;;;;;;;;5072464;28;19920;-61
2023/11/17 08:39:02;;;;;;;;;;;;;;;;;;5055910;28;19955;-61
2023/11/17 08:41:29;;;;;;;;;;;;;;;;;;5046748;28;19970;-61
2023/11/17 08:43:57;;;;;;;;;;;;;;;;;;5063548;28;19924;-61
2023/11/17 08:46:25;;;;;;;;;;;;;;;;;;5063282;28;19928;-61
2023/11/17 08:48:52;;;;;;;;;;;;;;;;;;5067777;28;20301;-60
2023/11/17 08:51:18;;;;;;;;;;;;;;;;;;5067770;28;19920;-60
2023/11/17 08:53:44;;;;;;;;;;;;;;;;;;5066235;28;19935;-60
2023/11/17 08:56:11;;;;;;;;;;;;;;;;;;5088945;22;19932;-60
2023/11/17 08:58:36;;;;;;;;;;;;;;;;;;5093045;28;19931;-60
2023/11/17 09:01:02;;;;;;;;;;;;;;;;;;5088007;28;20459;-60
2023/11/17 09:03:29;;;;;;;;;;;;;;;;;;5089231;28;19928;-60
2023/11/17 09:05:55;;;;;;;;;;;;;;;;;;5089340;28;20250;-60
2023/11/17 09:08:21;;;;;;;;;;;;;;;;;;5098541;28;19926;-60
2023/11/17 09:10:48;;;;;;;;;;;;;;;;;;5097786;28;19924;-60
2023/11/17 09:13:13;;;;;;;;;;;;;;;;;;5092169;28;19924;-60
2023/11/17 09:15:39;;;;;;;;;;;;;;;;;;5103893;28;19965;-60
2023/11/17 09:18:07;;;;;;;;;;;;;;;;;;5102106;28;19924;-60
2023/11/17 09:20:34;;;;;;;;;;;;;;;;;;5100837;28;19949;-60
2023/11/17 09:23:00;;;;;;;;;;;;;;;;;;5106594;28;20003;-60
2023/11/17 09:25:26;;;;;;;;;;;;;;;;;;5103007;28;20022;-60
2023/11/17 09:27:52;;;;;;;;;;;;;;;;;;5106832;28;20364;-60
2023/11/17 09:30:21;;;;;;;;;;;;;;;;;;5101561;28;22422;-60
2023/11/17 09:32:47;;;;;;;;;;;;;;;;;;5104176;28;19930;-60
2023/11/17 09:35:16;;;;;;;;;;;;;;;;;;5096337;28;20346;-60
2023/11/17 09:37:42;;;;;;;;;;;;;;;;;;5104198;28;19924;-61
2023/11/17 09:40:08;;;;;;;;;;;;;;;;;;5088593;28;19924;-61
2023/11/17 09:42:36;;;;;;;;;;;;;;;;;;5095729;28;19924;-61
2023/11/17 09:45:02;;;;;;;;;;;;;;;;;;5093240;28;19924;-62
2023/11/17 09:47:28;;;;;;;;;;;;;;;;;;5085113;28;20267;-62
2023/11/17 09:49:55;;;;;;;;;;;;;;;;;;5091361;28;19927;-62
2023/11/17 09:52:22;;;;;;;;;;;;;;;;;;5092165;28;19928;-62
2023/11/17 09:54:48;;;;;;;;;;;;;;;;;;5083187;28;20026;-62
2023/11/17 09:57:14;;;;;;;;;;;;;;;;;;5088592;28;20010;-62
2023/11/17 09:59:42;;;;;;;;;;;;;;;;;;5092130;28;19946;-62
2023/11/17 10:02:10;;;;;;;;;;;;;;;;;;5090076;28;19927;-62
2023/11/17 10:04:36;;;;;;;;;;;;;;;;;;5090253;28;19923;-62
2023/11/17 10:07:02;;;;;;;;;;;;;;;;;;5087590;28;19926;-62
2023/11/17 10:09:28;;;;;;;;;;;;;;;;;;5088498;28;20365;-62
2023/11/17 10:11:55;;;;;;;;;;;;;;;;;;5087040;28;19958;-62
2023/11/17 10:14:22;;;;;;;;;;;;;;;;;;5091024;28;19920;-62
2023/11/17 10:16:50;;;;;;;;;;;;;;;;;;5091634;28;19920;-62
2023/11/17 10:19:16;;;;;;;;;;;;;;;;;;5086534;28;20369;-62
2023/11/17 10:21:42;;;;;;;;;;;;;;;;;;5090671;28;20482;-62
2023/11/17 10:24:08;;;;;;;;;;;;;;;;;;5089187;28;19932;-62
2023/11/17 10:26:34;;;;;;;;;;;;;;;;;;5091983;28;19927;-62
2023/11/17 10:29:00;;;;;;;;;;;;;;;;;;5092146;28;20388;-62
2023/11/17 10:31:26;;;;;;;;;;;;;;;;;;5089189;28;20004;-62
2023/11/17 10:33:54;;;;;;;;;;;;;;;;;;5089619;28;19958;-62
2023/11/17 10:36:22;;;;;;;;;;;;;;;;;;5091016;28;20481;-62
2023/11/17 10:38:49;;;;;;;;;;;;;;;;;;5092744;28;19930;-62
2023/11/17 10:41:21;;;;;;;;;;;;;;;;;;5088913;28;20361;-64
2023/11/17 10:43:50;;;;;;;;;;;;;;;;;;5090418;28;19938;-62
2023/11/17 10:46:19;;;;;;;;;;;;;;;;;;5089218;28;19920;-62
2023/11/17 10:48:46;;;;;;;;;;;;;;;;;;5092559;28;19945;-62
2023/11/17 10:51:16;;;;;;;;;;;;;;;;;;5081858;28;19935;-62
2023/11/17 10:53:42;;;;;;;;;;;;;;;;;;5085825;28;19923;-62
2023/11/17 10:56:08;;;;;;;;;;;;;;;;;;5084542;28;19928;-62
2023/11/17 10:58:34;;;;;;;;;;;;;;;;;;5089685;28;19920;-62
2023/11/17 11:01:00;;;;;;;;;;;;;;;;;;5086046;28;19931;-62
2023/11/17 11:03:29;;;;;;;;;;;;;;;;;;5090410;28;19920;-62
2023/11/17 11:05:58;;;;;;;;;;;;;;;;;;5092165;28;19923;-62
2023/11/17 11:08:24;;;;;;;;;;;;;;;;;;5089001;28;19924;-62
2023/11/17 11:10:52;;;;;;;;;;;;;;;;;;5093688;28;20321;-62
2023/11/17 11:13:18;;;;;;;;;;;;;;;;;;5088171;28;19920;-62
2023/11/17 11:15:44;;;;;;;;;;;;;;;;;;5088193;28;20276;-62
2023/11/17 11:18:12;;;;;;;;;;;;;;;;;;5093298;28;19924;-62
2023/11/17 11:20:38;;;;;;;;;;;;;;;;;;5083811;28;20356;-62
2023/11/17 11:23:05;;;;;;;;;;;;;;;;;;5086380;28;19920;-62
2023/11/17 11:25:31;;;;;;;;;;;;;;;;;;5084861;28;19924;-62
2023/11/17 11:27:57;;;;;;;;;;;;;;;;;;5091514;28;19950;-62
2023/11/17 11:30:23;;;;;;;;;;;;;;;;;;5088483;28;19930;-62
2023/11/17 11:32:49;;;;;;;;;;;;;;;;;;5095717;28;19920;-62
2023/11/17 11:35:15;;;;;;;;;;;;;;;;;;5085783;28;19924;-62
2023/11/17 11:37:41;;;;;;;;;;;;;;;;;;5085335;28;19931;-62
2023/11/17 11:40:07;;;;;;;;;;;;;;;;;;5088245;28;20319;-62
2023/11/17 11:42:33;;;;;;;;;;;;;;;;;;5089527;28;20404;-62
2023/11/17 11:44:59;;;;;;;;;;;;;;;;;;5088149;28;19928;-62
2023/11/17 11:47:24;;;;;;;;;;;;;;;;;;5081568;28;20331;-61
2023/11/17 11:49:52;;;;;;;;;;;;;;;;;;5082139;28;19927;-62
2023/11/17 11:52:18;;;;;;;;;;;;;;;;;;5079882;28;19920;-62
2023/11/17 11:54:43;;;;;;;;;;;;;;;;;;5084758;28;20266;-62
2023/11/17 11:57:09;;;;;;;;;;;;;;;;;;5083732;28;19921;-62
2023/11/17 11:59:35;;;;;;;;;;;;;;;;;;5090152;28;19931;-62
2023/11/17 12:02:03;;;;;;;;;;;;;;;;;;5085803;28;20318;-62
2023/11/17 12:04:29;;;;;;;;;;;;;;;;;;5083311;28;19929;-62
2023/11/17 12:06:55;;;;;;;;;;;;;;;;;;5079941;28;19920;-62
2023/11/17 12:09:21;;;;;;;;;;;;;;;;;;5082070;28;19952;-62
2023/11/17 12:11:47;;;;;;;;;;;;;;;;;;5084327;28;19930;-62
2023/11/17 12:14:13;;;;;;;;;;;;;;;;;;5085819;28;19978;-62
2023/11/17 12:16:39;;;;;;;;;;;;;;;;;;5081376;28;19928;-62
2023/11/17 12:19:04;;;;;;;;;;;;;;;;;;5082485;28;20335;-62
2023/11/17 12:21:38;;;;;;;;;;;;;;;;;;5085791;28;19924;-63
2023/11/17 12:24:04;;;;;;;;;;;;;;;;;;5079926;28;19920;-62
2023/11/17 12:26:30;;;;;;;;;;;;;;;;;;5087575;28;19997;-61
2023/11/17 12:28:55;;;;;;;;;;;;;;;;;;5087368;28;19924;-61
2023/11/17 12:31:21;;;;;;;;;;;;;;;;;;5087272;28;19928;-61
2023/11/17 12:33:49;;;;;;;;;;;;;;;;;;5090057;28;19927;-61
2023/11/17 12:36:15;;;;;;;;;;;;;;;;;;5101908;28;19927;-61
2023/11/17 12:38:44;;;;;;;;;;;;;;;;;;5085503;28;20346;-62
2023/11/17 12:41:10;;;;;;;;;;;;;;;;;;5080510;28;19928;-61
2023/11/17 12:43:36;;;;;;;;;;;;;;;;;;5081515;28;19920;-61
2023/11/17 12:46:02;;;;;;;;;;;;;;;;;;5081494;28;19920;-62
2023/11/17 12:48:28;;;;;;;;;;;;;;;;;;5088285;28;19924;-61
2023/11/17 12:50:58;;;;;;;;;;;;;;;;;;5084921;28;19924;-62
2023/11/17 12:53:23;;;;;;;;;;;;;;;;;;5097506;28;19948;-62
2023/11/17 12:55:51;;;;;;;;;;;;;;;;;;5111973;28;19975;-62
2023/11/17 12:58:17;;;;;;;;;;;;;;;;;;5087732;28;19971;-61
2023/11/17 13:00:46;;;;;;;;;;;;;;;;;;5093558;28;19978;-62
2023/11/17 13:03:12;;;;;;;;;;;;;;;;;;5099397;28;19973;-62
2023/11/17 13:05:38;;;;;;;;;;;;;;;;;;5091896;28;20522;-62
2023/11/17 13:08:04;;;;;;;;;;;;;;;;;;5092437;28;19924;-62
2023/11/17 13:10:30;;;;;;;;;;;;;;;;;;5089647;28;19930;-61
2023/11/17 13:12:56;;;;;;;;;;;;;;;;;;5095535;28;19928;-62
2023/11/17 13:15:22;;;;;;;;;;;;;;;;;;5100633;28;19920;-62
2023/11/17 13:17:48;;;;;;;;;;;;;;;;;;5096949;28;19969;-62
2023/11/17 13:20:16;;;;;;;;;;;;;;;;;;5093911;28;19928;-62
2023/11/17 13:22:46;;;;;;;;;;;;;;;;;;5094145;28;19928;-61
2023/11/17 13:25:12;;;;;;;;;;;;;;;;;;5090940;28;20411;-62
2023/11/17 13:27:38;;;;;;;;;;;;;;;;;;5085548;28;20506;-61
2023/11/17 13:30:05;;;;;;;;;;;;;;;;;;5105048;28;19938;-62
2023/11/17 13:32:31;;;;;;;;;;;;;;;;;;5092117;28;19920;-61
2023/11/17 13:34:56;;;;;;;;;;;;;;;;;;5091136;28;19923;-61
2023/11/17 13:37:22;;;;;;;;;;;;;;;;;;5096595;28;20021;-61
2023/11/17 13:39:48;;;;;;;;;;;;;;;;;;5086487;28;19920;-61
2023/11/17 13:42:15;;;;;;;;;;;;;;;;;;5083049;28;20369;-62
2023/11/17 13:44:41;;;;;;;;;;;;;;;;;;5090276;28;19928;-62
2023/11/17 13:47:07;;;;;;;;;;;;;;;;;;5085416;28;19920;-62
2023/11/17 13:49:35;;;;;;;;;;;;;;;;;;5083813;28;19964;-62
2023/11/17 13:52:09;;;;;;;;;;;;;;;;;;5086248;28;19920;-62
2023/11/17 13:54:35;;;;;;;;;;;;;;;;;;5085309;28;19931;-62
2023/11/17 13:57:01;;;;;;;;;;;;;;;;;;5085555;28;19928;-62
2023/11/17 13:59:27;;;;;;;;;;;;;;;;;;5086124;28;19920;-62
2023/11/17 14:01:56;;;;;;;;;;;;;;;;;;5085800;28;19929;-62
2023/11/17 14:04:24;;;;;;;;;;;;;;;;;;5086001;28;19920;-62
2023/11/17 14:06:50;;;;;;;;;;;;;;;;;;5078279;28;19924;-62
2023/11/17 14:09:21;;;;;;;;;;;;;;;;;;5081018;28;19928;-62
2023/11/17 14:11:50;;;;;;;;;;;;;;;;;;5088686;28;20007;-62
2023/11/17 14:14:16;;;;;;;;;;;;;;;;;;5087132;28;19924;-62
2023/11/17 14:16:42;;;;;;;;;;;;;;;;;;5085779;28;20434;-62
2023/11/17 14:19:10;;;;;;;;;;;;;;;;;;5089833;28;19920;-62
2023/11/17 14:21:37;;;;;;;;;;;;;;;;;;5092214;28;20376;-63
2023/11/17 14:24:03;;;;;;;;;;;;;;;;;;5089979;28;19928;-62
2023/11/17 14:26:29;;;;;;;;;;;;;;;;;;5084913;28;19927;-62
2023/11/17 14:28:56;;;;;;;;;;;;;;;;;;5086198;28;19935;-62
2023/11/17 14:31:23;;;;;;;;;;;;;;;;;;5084898;28;19920;-62
2023/11/17 14:33:49;;;;;;;;;;;;;;;;;;5079592;28;19924;-62
2023/11/17 14:36:16;;;;;;;;;;;;;;;;;;5084816;28;19935;-62
2023/11/17 14:38:42;;;;;;;;;;;;;;;;;;5093447;28;20011;-62
2023/11/17 14:41:09;;;;;;;;;;;;;;;;;;5090852;28;20065;-62
2023/11/17 14:43:35;;;;;;;;;;;;;;;;;;5072639;28;19930;-62
2023/11/17 14:46:01;;;;;;;;;;;;;;;;;;5093315;28;19920;-62
2023/11/17 14:48:28;;;;;;;;;;;;;;;;;;5090624;28;20384;-62
2023/11/17 14:50:54;;;;;;;;;;;;;;;;;;5089492;28;19946;-62
2023/11/17 14:53:20;;;;;;;;;;;;;;;;;;5086795;28;20316;-62
2023/11/17 14:55:46;;;;;;;;;;;;;;;;;;5088804;28;19932;-62
2023/11/17 14:58:13;;;;;;;;;;;;;;;;;;5085842;28;19920;-62
2023/11/17 15:00:41;;;;;;;;;;;;;;;;;;5089992;28;19966;-62
2023/11/17 15:03:08;;;;;;;;;;;;;;;;;;5080141;28;19921;-62
2023/11/17 15:05:36;;;;;;;;;;;;;;;;;;5083802;28;20292;-62
2023/11/17 15:08:05;;;;;;;;;;;;;;;;;;5091607;28;19924;-62
2023/11/17 15:10:31;;;;;;;;;;;;;;;;;;5083385;28;20051;-62
2023/11/17 15:12:58;;;;;;;;;;;;;;;;;;5079209;28;20019;-62
2023/11/17 15:15:27;;;;;;;;;;;;;;;;;;5086481;28;20370;-62
2023/11/17 15:17:54;;;;;;;;;;;;;;;;;;5088681;28;20430;-62
2023/11/17 15:20:21;;;;;;;;;;;;;;;;;;5093547;28;19978;-62
2023/11/17 15:22:48;;;;;;;;;;;;;;;;;;5084600;28;19982;-62
2023/11/17 15:25:17;;;;;;;;;;;;;;;;;;5087041;28;19954;-62
2023/11/17 15:27:43;;;;;;;;;;;;;;;;;;5088103;28;19935;-62
2023/11/17 15:30:13;;;;;;;;;;;;;;;;;;5077237;28;19920;-62
2023/11/17 15:32:39;;;;;;;;;;;;;;;;;;5082039;28;19966;-62
2023/11/17 15:35:06;;;;;;;;;;;;;;;;;;5085412;28;20296;-62
2023/11/17 15:37:32;;;;;;;;;;;;;;;;;;5083832;28;19924;-62
2023/11/17 15:39:57;;;;;;;;;;;;;;;;;;5087287;28;20381;-62
2023/11/17 15:42:24;;;;;;;;;;;;;;;;;;5083333;28;20022;-62
2023/11/17 15:44:54;;;;;;;;;;;;;;;;;;5089618;28;20596;-62
2023/11/17 15:47:21;;;;;;;;;;;;;;;;;;5088591;28;19924;-62
2023/11/17 15:49:47;;;;;;;;;;;;;;;;;;5087438;28;20361;-62
2023/11/17 15:52:13;;;;;;;;;;;;;;;;;;5088038;28;19924;-62
2023/11/17 15:54:39;;;;;;;;;;;;;;;;;;5091288;28;19919;-62
2023/11/17 15:57:05;;;;;;;;;;;;;;;;;;5084744;28;19928;-63
2023/11/17 15:59:31;;;;;;;;;;;;;;;;;;5095927;28;19920;-63
2023/11/17 16:01:57;;;;;;;;;;;;;;;;;;5097390;28;19935;-63
2023/11/17 16:04:23;;;;;;;;;;;;;;;;;;5090979;28;19928;-63
2023/11/17 16:06:49;;;;;;;;;;;;;;;;;;5094037;28;20273;-63
2023/11/17 16:09:19;;;;;;;;;;;;;;;;;;5090419;28;19931;-63
2023/11/17 16:11:45;;;;;;;;;;;;;;;;;;5085928;28;19931;-63
2023/11/17 16:14:12;;;;;;;;;;;;;;;;;;5087540;28;19920;-63
2023/11/17 16:16:38;;;;;;;;;;;;;;;;;;5067642;28;20297;-63
2023/11/17 16:19:04;;;;;;;;;;;;;;;;;;5081739;28;19920;-63
2023/11/17 16:21:29;;;;;;;;;;;;;;;;;;5087250;28;19928;-63
2023/11/17 16:23:56;;;;;;;;;;;;;;;;;;5090854;28;20390;-63
2023/11/17 16:26:22;;;;;;;;;;;;;;;;;;5089164;28;19936;-63
2023/11/17 16:28:48;;;;;;;;;;;;;;;;;;5092328;28;19926;-63
2023/11/17 16:31:16;;;;;;;;;;;;;;;;;;5090070;28;20401;-63
2023/11/17 16:33:45;;;;;;;;;;;;;;;;;;5092309;28;19924;-64
2023/11/17 16:36:11;;;;;;;;;;;;;;;;;;5081549;28;19930;-63
2023/11/17 16:38:37;;;;;;;;;;;;;;;;;;5094540;28;19924;-63
2023/11/17 16:41:06;;;;;;;;;;;;;;;;;;5092943;28;19924;-63